Relevés horaires Matro (Suisse)


Relevés horaires à Matro - Lundi 21 Févr. 2022
Heure UTC1 Température [°C] Vent [km/h] Hum. [%] Pres.4 [hPa] Visi. [Km] Nébu. [octa] Préc.5 [mm] Cond.
2m. Res. Ros. Dir.2 Vit. Moy. Raf.3
23:00 -6.9 -15.9 -7.3 NO 33.3 -- 57.4 97 850(1.8/3h) -- -- -- --
22:00 -6.2 -15.2 -7.3 NNO 35.2 -- 63.0 92 850(1.1/3h) -- -- -- --
21:00 -6.6 -15 -8.4 NNO 29.6 -- 61.1 87 850(0.8/3h) -- -- -- --
20:00 -7.0 -16.4 -7.1 NNO 37.0 -- 57.4 99 850(0.6/3h) -- -- -- --
19:00 -7.3 -16.6 -7.3 NNO 35.2 -- 51.9 100 850(0.4/3h) -- -- -- --
18:00 -7.3 -16.2 -9.3 NO 31.5 -- 88.9 86 850(0.2/3h) -- -- -- --
17:00 -7.6 -17.2 -9.9 NNO 37.0 -- 70.4 83 850(-0.1/3h) -- -- -- --
16:00 -7.0 -16.6 -11.6 NNO 38.9 -- 88.9 70 850(-0.4/3h) -- -- -- --
15:00 -6.3 -14.9 -13.9 NNO 31.5 -- 68.5 55 850(-1.1/3h) -- -- -- --
14:00 -5.7 -13.9 -13.6 NNO 29.6 -- 55.6 54 850(-1.4/3h) -- -- -- --
13:00 -5.5 -12.6 -12.8 NNO 22.2 -- 51.9 56 850(-0.7/3h) -- -- -- --
12:00 -5.8 -14.4 -14.1 NO 33.3 -- 90.7 52 850(0.6/3h) -- -- -- --
11:00 -5.2 -13.6 -14.3 NNO 33.3 -- 90.7 49 850(1.5/3h) -- -- -- --
10:00 -5.0 -14.1 -13.4 NO 40.7 -- 74.1 52 850(0.5/3h) -- -- -- --
09:00 -4.6 -13.3 -5.1 NNO 37.0 -- 53.7 96 850(-1.0/3h) -- -- -- --
08:00 -2.3 -5.9 -8.7 S 9.3 -- 14.8 61 850(-2.3/3h) -- -- -- --
07:00 -2.6 -6.2 -7.8 S 9.3 -- 14.8 67 850(-2.3/3h) -- -- -- --
06:00 -3.0 -6.7 -8.9 S 9.3 -- 29.6 64 850(-2.1/3h) -- -- -- --
05:00 -3.4 -7.7 -9.3 NO 11.1 -- 22.2 64 850(-2.6/3h) -- -- -- --
04:00 -2.8 -6.5 -11.7 SE 9.3 -- 25.9 50 850(-2.7/3h) -- -- -- --
03:00 -2.7 -8.7 -11.5 SSE 20.4 -- 29.6 51 850(-2.9/3h) -- -- -- --
02:00 -2.0 -7.8 -9.5 SE 20.4 -- 24.1 56 850(-2.3/3h) -- -- -- --
01:00 -1.4 -6.8 -9.1 SE 18.5 -- 29.6 56 850(-2.3/3h) -- -- -- --
00:00 -1.2 -6.5 -8.4 ESE 18.5 -- 25.9 58 850(-1.9/3h) -- -- -- --

1 Coordinated Universal Time. Actuellement il est 20:00 locale et 18:00 UTC.

2 Le vent souffle depuis la direction indiquée vers la direction oposée.

3 Les rafales max. sont disponible 40 min après l'heure du relevé.

4 Pour les stations d'altitude (plus de 600m) le géopotentiel du niveau le plus proche de la pression obligatoire est indiqué.

5 Les stations disposant d'un diffuseur peuvent indiquer "trace". Cela signifie que des précipitations ont touchés le sol mais que la quantité est inférieure à 0.1 mm.

Copyright

Les données affichées sur cette page sont la propriété exclusive de Météo Suisse.

Récapitulatif de la journée
Température [°C] Vent [km/h] Ensoleillement4 [h] Precipitations totale5 [mm] Pression [Hpa]
Min1 Max.2 Moy.3 Max. Min Max.
-3.8 -2.3 0 90.7 6 h 0 min 0 850.0 850.0

1 Température minimale relevée entre 18:00 UTC la veille et 18:00 UTC le jour donné.

2 Température maximale relevée entre 06:00 UTC le jour donné et 06:00 UTC le lendemain.

3 Vent moyen de la journée basé sur les relevés horaires.

4 Ensoleillement en heures relevé entre 06:00 UTC la veille et 06:00 UTC le jour donné.

5 Précipitations totales tombées entre 06:00 UTC la jour donné et 06:00 UTC le lendemain.

Graphiques horaires